Time;durP1;ratioP1;P1;durP2;ratioP2;P2;SDS_P1;SDS_P2;PMS_P1;PMS_P2;Temp;Humidity;BMP_temperature;BMP_pressure;BME280_temperature;BME280_humidity;BME280_pressure;Samples;Min_cycle;Max_cycle;Signal;HPM_P1;HPM_P2
2022/11/19 00:01:07;;;;;;;28.83;13.50;;;;;;;-3.04;57.99;100728.94;4977156;28;20043;-64
2022/11/19 00:03:36;;;;;;;29.65;13.38;;;;;;;-3.13;58.22;100732.03;4975086;28;20046;-67
2022/11/19 00:06:15;;;;;;;27.20;12.98;;;;;;;-3.10;58.52;100724.00;4975957;28;20487;-65
2022/11/19 00:08:42;;;;;;;30.90;13.98;;;;;;;-3.10;58.59;100726.63;4973142;28;20053;-65
2022/11/19 00:11:12;;;;;;;26.83;13.00;;;;;;;-3.07;58.19;100723.84;4975123;28;20050;-64
2022/11/19 00:13:40;;;;;;;25.33;13.45;;;;;;;-3.24;59.75;100726.41;4974519;28;20043;-65
2022/11/19 00:16:09;;;;;;;29.45;14.05;;;;;;;-3.17;59.62;100719.97;4974818;28;20046;-66
2022/11/19 00:18:36;;;;;;;31.02;13.50;;;;;;;-3.10;58.56;100730.13;4975404;28;20050;-65
2022/11/19 00:21:08;;;;;;;27.67;14.13;;;;;;;-3.30;59.72;100733.66;4975294;28;20053;-64
2022/11/19 00:23:35;;;;;;;27.55;14.52;;;;;;;-3.28;59.87;100734.44;4972801;28;20047;-65
2022/11/19 00:26:07;;;;;;;35.95;14.57;;;;;;;-3.33;59.97;100736.44;4975456;28;20047;-64
2022/11/19 00:28:33;;;;;;;26.35;12.85;;;;;;;-3.34;60.36;100745.22;4972601;28;20039;-63
2022/11/19 00:31:11;;;;;;;29.02;13.20;;;;;;;-3.27;60.25;100745.78;4975312;28;20054;-63
2022/11/19 00:33:39;;;;;;;26.35;13.65;;;;;;;-3.37;60.41;100737.50;4973722;28;20050;-64
2022/11/19 00:36:08;;;;;;;22.77;12.10;;;;;;;-3.33;59.93;100743.44;4974046;28;20057;-64
2022/11/19 00:38:35;;;;;;;25.08;13.55;;;;;;;-3.31;60.15;100742.47;4974068;28;20047;-64
2022/11/19 00:41:02;;;;;;;24.38;13.48;;;;;;;-3.51;61.11;100742.53;4975705;28;20047;-64
2022/11/19 00:43:47;;;;;;;24.83;12.77;;;;;;;-3.40;60.10;100749.91;4973406;28;20038;-64
2022/11/19 00:46:17;;;;;;;25.00;12.60;;;;;;;-3.47;59.91;100758.97;4966012;28;20138;-63
2022/11/19 00:48:44;;;;;;;27.25;11.90;;;;;;;-3.50;60.22;100752.09;4972050;28;20047;-63
2022/11/19 00:51:11;;;;;;;27.80;12.73;;;;;;;-3.52;59.76;100756.53;4974872;28;20058;-64
2022/11/19 00:53:38;;;;;;;23.10;12.13;;;;;;;-3.64;60.44;100759.72;4972080;28;20051;-62
2022/11/19 00:56:07;;;;;;;27.92;13.45;;;;;;;-3.63;59.85;100757.03;4963233;28;20078;-63
2022/11/19 00:58:34;;;;;;;27.55;13.68;;;;;;;-3.60;59.82;100751.63;4955052;28;20044;-63
2022/11/19 01:01:01;;;;;;;28.75;13.20;;;;;;;-3.59;59.60;100761.19;4954355;28;20047;-63
2022/11/19 01:03:29;;;;;;;22.40;11.27;;;;;;;-3.56;60.12;100773.34;4955833;28;20067;-63
2022/11/19 01:05:56;;;;;;;25.48;12.30;;;;;;;-3.62;59.87;100766.63;4954970;28;20058;-63
2022/11/19 01:08:22;;;;;;;22.33;12.15;;;;;;;-3.60;59.73;100769.16;4955296;28;20058;-63
2022/11/19 01:10:49;;;;;;;24.42;11.98;;;;;;;-3.62;60.18;100766.63;4951261;28;20047;-64
2022/11/19 01:13:33;;;;;;;24.40;12.68;;;;;;;-3.74;60.40;100766.28;4954650;28;20055;-64
2022/11/19 01:16:05;;;;;;;29.35;12.52;;;;;;;-3.66;59.58;100770.25;4954032;28;20047;-63
2022/11/19 01:18:31;;;;;;;19.13;11.00;;;;;;;-3.69;59.73;100769.53;4955295;28;20049;-64
2022/11/19 01:20:58;;;;;;;25.85;12.27;;;;;;;-3.79;60.11;100762.09;4956368;28;20049;-62
2022/11/19 01:23:25;;;;;;;27.55;13.55;;;;;;;-3.83;59.75;100768.41;4954860;28;20055;-62
2022/11/19 01:25:51;;;;;;;22.95;11.10;;;;;;;-3.84;59.88;100757.97;4955680;28;20050;-63
2022/11/19 01:28:18;;;;;;;24.75;11.88;;;;;;;-3.82;59.71;100764.00;4955357;28;20059;-64
2022/11/19 01:30:45;;;;;;;22.40;11.45;;;;;;;-3.87;59.67;100761.56;4955816;28;20234;-63
2022/11/19 01:33:11;;;;;;;20.30;10.80;;;;;;;-3.90;59.92;100766.94;4955347;28;20054;-64
2022/11/19 01:35:38;;;;;;;23.55;11.32;;;;;;;-3.89;59.79;100763.44;4955580;28;20050;-63
2022/11/19 01:38:05;;;;;;;22.70;11.43;;;;;;;-3.89;59.94;100762.59;4955452;28;20492;-63
2022/11/19 01:40:32;;;;;;;18.65;10.48;;;;;;;-3.96;60.16;100766.38;4956213;28;20058;-64
2022/11/19 01:42:58;;;;;;;25.30;11.82;;;;;;;-4.02;60.45;100770.13;4955625;28;20050;-64
2022/11/19 01:45:28;;;;;;;22.40;10.98;;;;;;;-3.98;60.19;100763.81;4955454;28;20055;-63
2022/11/19 01:48:00;;;;;;;21.45;10.70;;;;;;;-4.02;60.65;100768.34;4955144;28;20047;-63
2022/11/19 01:50:30;;;;;;;22.48;11.48;;;;;;;-4.17;61.18;100768.13;4954923;28;21523;-64
2022/11/19 01:52:56;;;;;;;21.40;11.07;;;;;;;-3.99;60.88;100767.38;4955164;28;20047;-63
2022/11/19 01:55:23;;;;;;;23.63;12.05;;;;;;;-4.02;60.83;100770.97;4961104;28;20054;-63
2022/11/19 01:57:57;;;;;;;24.10;11.25;;;;;;;-3.99;61.00;100772.59;4974139;28;20047;-63
2022/11/19 02:00:24;;;;;;;27.02;12.15;;;;;;;-3.91;60.90;100775.72;4973343;28;20142;-64
2022/11/19 02:02:51;;;;;;;22.75;11.05;;;;;;;-3.92;60.64;100781.91;4973909;28;20062;-64
2022/11/19 02:09:04;;;;;;;23.65;11.57;;;;;;;-3.99;60.86;100790.09;4971062;28;20105;-64
2022/11/19 02:11:49;;;;;;;23.55;10.70;;;;;;;-3.93;60.75;100795.06;4973251;28;20471;-63
2022/11/19 02:14:23;;;;;;;23.90;10.85;;;;;;;-3.99;60.73;100788.31;4973514;28;20053;-64
2022/11/19 02:17:10;;;;;;;22.20;11.60;;;;;;;-4.04;61.01;100793.75;4972587;28;20495;-64
2022/11/19 02:19:42;;;;;;;19.33;10.73;;;;;;;-4.10;61.54;100790.56;4973502;28;20050;-64
2022/11/19 02:22:56;;;;;;;20.13;10.75;;;;;;;-4.13;61.51;100790.69;4973104;28;20050;-65
2022/11/19 02:25:48;;;;;;;23.30;11.02;;;;;;;-3.97;61.10;100804.81;4971982;28;20045;-63
2022/11/19 02:28:27;;;;;;;24.73;11.65;;;;;;;-3.97;61.15;100801.34;4972539;28;20060;-63
2022/11/19 02:31:10;;;;;;;21.13;10.40;;;;;;;-4.09;61.64;100787.84;4971910;28;20046;-63
2022/11/19 02:34:07;;;;;;;29.23;12.10;;;;;;;-4.02;62.03;100799.78;4972153;28;20038;-63
2022/11/19 02:36:41;;;;;;;25.67;12.05;;;;;;;-4.02;61.95;100791.06;4972835;28;20411;-65
2022/11/19 02:39:19;;;;;;;22.20;11.05;;;;;;;-3.86;61.10;100786.00;4973677;28;20085;-66
2022/11/19 02:41:58;;;;;;;26.25;12.02;;;;;;;-3.91;60.83;100785.38;4972940;28;20051;-64
2022/11/19 02:47:22;;;;;;;28.77;12.30;;;;;;;-3.94;60.78;100781.09;4971831;28;20073;-63
2022/11/19 02:49:53;;;;;;;21.10;11.10;;;;;;;-3.98;60.81;100779.53;4972810;28;20051;-64
2022/11/19 02:52:20;;;;;;;22.48;11.30;;;;;;;-3.97;61.18;100781.22;4972203;28;20051;-64
2022/11/19 02:54:47;;;;;;;23.63;11.63;;;;;;;-3.91;61.00;100780.97;4971403;28;20077;-64
2022/11/19 02:57:13;;;;;;;22.50;10.95;;;;;;;-4.01;60.78;100782.28;4953408;28;20051;-63
2022/11/19 03:05:30;;;;;;;22.92;11.82;;;;;;;-4.06;60.97;100779.03;4952272;28;20055;-63
2022/11/19 03:07:57;;;;;;;40.75;11.27;;;;;;;-4.10;60.81;100775.69;4952860;28;20459;-65
2022/11/19 03:10:29;;;;;;;22.30;11.25;;;;;;;-4.14;60.76;100779.34;4952323;28;20055;-65
2022/11/19 03:16:40;;;;;;;21.30;11.38;;;;;;;-4.20;60.75;100778.75;4952521;28;20437;-63
2022/11/19 03:18:52;;;;;;;19.67;10.90;;;;;;;-4.23;60.88;100784.97;4953816;28;20047;-63
2022/11/19 03:21:37;;;;;;;21.85;10.95;;;;;;;-4.15;61.19;100789.88;4948849;28;20495;-65
2022/11/19 03:24:13;;;;;;;25.80;10.80;;;;;;;-4.11;60.84;100791.44;4959721;28;20510;-65
2022/11/19 03:26:45;;;;;;;24.17;11.25;;;;;;;-4.13;61.19;100793.31;4953036;28;20047;-64
2022/11/19 03:29:13;;;;;;;24.08;10.40;;;;;;;-4.03;61.13;100792.84;4953460;28;20525;-64
2022/11/19 03:31:47;;;;;;;19.60;10.63;;;;;;;-4.26;61.37;100780.69;4952159;28;20047;-64
2022/11/19 03:34:20;;;;;;;27.40;11.02;;;;;;;-4.12;61.51;100781.91;4953054;28;20414;-65
2022/11/19 03:36:49;;;;;;;24.92;10.77;;;;;;;-4.09;60.73;100787.00;4951984;28;20054;-63
2022/11/19 03:39:19;;;;;;;26.65;11.95;;;;;;;-4.16;61.08;100785.56;4952274;28;20133;-63
2022/11/19 03:41:48;;;;;;;21.75;11.10;;;;;;;-4.12;60.93;100787.13;4953595;28;20523;-63
2022/11/19 03:44:35;;;;;;;19.90;10.45;;;;;;;-4.15;60.67;100797.75;4952912;28;20070;-63
2022/11/19 03:47:10;;;;;;;20.85;11.77;;;;;;;-4.34;61.19;100809.00;4952811;28;20047;-64
2022/11/19 03:49:40;;;;;;;20.60;11.00;;;;;;;-4.21;61.18;100798.00;4952720;28;20054;-63
2022/11/19 03:52:19;;;;;;;15.77;8.00;;;;;;;-4.19;61.05;100807.50;4952514;28;20051;-65
2022/11/19 03:54:45;;;;;;;24.45;11.88;;;;;;;-4.23;61.21;100813.78;4953462;28;20062;-63
2022/11/19 03:57:15;;;;;;;20.67;11.20;;;;;;;-4.19;61.05;100814.50;4969237;28;20054;-63
2022/11/19 03:59:42;;;;;;;25.15;11.02;;;;;;;-4.31;61.32;100810.63;4978304;28;20054;-64
2022/11/19 04:02:10;;;;;;;19.70;10.32;;;;;;;-4.23;61.26;100815.56;4971942;28;20043;-64
2022/11/19 04:04:37;;;;;;;21.48;11.15;;;;;;;-4.23;61.26;100810.31;4968730;28;20047;-63
2022/11/19 04:07:11;;;;;;;25.05;10.63;;;;;;;-4.14;61.00;100809.91;4971332;28;20047;-64
2022/11/19 04:09:39;;;;;;;24.35;10.65;;;;;;;-4.16;61.27;100811.75;4971786;28;20129;-63
2022/11/19 04:12:08;;;;;;;19.02;10.25;;;;;;;-4.18;61.24;100811.81;4971667;28;20073;-63
2022/11/19 04:14:35;;;;;;;22.40;10.43;;;;;;;-4.18;61.44;100814.44;4972973;28;20050;-64
2022/11/19 04:17:02;;;;;;;19.38;10.30;;;;;;;-4.18;61.18;100811.81;4970884;28;20051;-63
2022/11/19 04:19:28;;;;;;;20.20;10.38;;;;;;;-4.18;61.32;100813.59;4971552;28;20051;-64
2022/11/19 04:21:55;;;;;;;20.83;9.98;;;;;;;-4.11;61.48;100809.78;4971949;28;20059;-63
2022/11/19 04:24:21;;;;;;;16.35;8.77;;;;;;;-4.14;61.43;100809.91;4972081;28;20291;-63
2022/11/19 04:26:48;;;;;;;18.77;9.10;;;;;;;-4.14;61.64;100812.53;4972022;28;20454;-64
2022/11/19 04:29:14;;;;;;;19.45;9.02;;;;;;;-4.16;61.71;100810.00;4969150;28;20407;-64
2022/11/19 04:31:41;;;;;;;20.63;9.38;;;;;;;-4.19;61.59;100807.50;4975215;28;20046;-64
2022/11/19 04:34:07;;;;;;;17.63;9.10;;;;;;;-4.15;61.22;100810.84;4975831;28;20073;-64
2022/11/19 04:36:34;;;;;;;17.65;9.55;;;;;;;-4.17;61.14;100804.81;4974138;28;20051;-64
2022/11/19 04:39:00;;;;;;;17.70;9.18;;;;;;;-4.22;61.28;100809.41;4974291;28;20046;-64
2022/11/19 04:41:27;;;;;;;24.67;9.75;;;;;;;-4.22;60.96;100812.00;4975321;28;20055;-64
2022/11/19 04:43:53;;;;;;;20.63;9.50;;;;;;;-4.22;61.03;100809.41;4974969;28;20388;-64
2022/11/19 04:46:20;;;;;;;19.80;9.48;;;;;;;-4.17;60.74;100810.91;4974783;28;20055;-65
2022/11/19 04:48:46;;;;;;;17.98;8.95;;;;;;;-4.21;60.40;100811.09;4973404;28;20043;-65
2022/11/19 04:51:13;;;;;;;14.57;8.38;;;;;;;-4.29;61.00;100807.03;4975576;28;20414;-64
2022/11/19 04:53:39;;;;;;;17.23;9.40;;;;;;;-4.25;60.89;100808.59;4974163;28;20047;-64
2022/11/19 04:56:06;;;;;;;18.05;9.18;;;;;;;-4.42;61.10;100800.56;4962596;28;20047;-64
2022/11/19 04:58:33;;;;;;;16.60;9.38;;;;;;;-4.35;61.27;100799.41;4955019;28;20080;-64
2022/11/19 05:01:00;;;;;;;18.98;9.50;;;;;;;-4.52;61.94;100794.88;4955814;28;20047;-64
2022/11/19 05:03:27;;;;;;;20.85;9.73;;;;;;;-4.28;61.21;100790.41;4955002;28;20047;-64
2022/11/19 05:05:53;;;;;;;18.50;9.40;;;;;;;-4.34;61.13;100790.66;4954759;28;20043;-66
2022/11/19 05:08:20;;;;;;;19.45;9.57;;;;;;;-4.33;61.21;100794.97;4949362;28;20419;-63
2022/11/19 05:10:47;;;;;;;19.90;9.43;;;;;;;-4.27;60.86;100786.88;4954980;28;20523;-65
2022/11/19 05:13:13;;;;;;;17.75;8.95;;;;;;;-4.22;60.44;100791.91;4955256;28;20054;-63
2022/11/19 05:15:40;;;;;;;17.58;9.50;;;;;;;-4.30;60.63;100787.00;4954643;28;20077;-63
2022/11/19 05:18:07;;;;;;;17.73;9.27;;;;;;;-4.30;60.39;100781.75;4955244;28;20047;-64
2022/11/19 05:20:33;;;;;;;19.67;9.57;;;;;;;-4.36;60.92;100782.00;4954076;28;20078;-64
2022/11/19 05:23:00;;;;;;;20.42;9.77;;;;;;;-4.36;61.11;100779.38;4953964;28;20051;-65
2022/11/19 05:25:26;;;;;;;17.75;9.85;;;;;;;-4.49;61.22;100773.78;4954483;28;20047;-63
2022/11/19 05:27:53;;;;;;;21.55;10.77;;;;;;;-4.34;61.15;100777.56;4955344;28;20051;-64
2022/11/19 05:30:19;;;;;;;22.85;9.68;;;;;;;-4.42;61.12;100779.63;4955265;28;20484;-65
2022/11/19 05:32:46;;;;;;;20.48;9.55;;;;;;;-4.36;61.15;100781.16;4953695;28;20043;-66
2022/11/19 05:35:13;;;;;;;18.40;9.95;;;;;;;-4.39;61.32;100784.75;4954015;28;20495;-64
2022/11/19 05:37:39;;;;;;;22.20;9.63;;;;;;;-4.49;61.40;100786.03;4954489;28;20057;-64
2022/11/19 05:40:07;;;;;;;18.63;9.48;;;;;;;-4.39;61.55;100778.66;4953585;28;20047;-64
2022/11/19 05:42:33;;;;;;;22.85;10.13;;;;;;;-4.41;61.34;100781.34;4954813;28;20054;-63
2022/11/19 05:45:00;;;;;;;17.65;9.63;;;;;;;-4.25;61.12;100776.31;4952076;28;20046;-63
2022/11/19 05:47:26;;;;;;;18.73;10.15;;;;;;;-4.28;60.94;100777.31;4954024;28;20415;-63
2022/11/19 05:49:52;;;;;;;18.65;9.75;;;;;;;-4.60;61.76;100773.38;4954574;28;20051;-63
2022/11/19 05:52:19;;;;;;;19.35;9.27;;;;;;;-4.46;62.63;100774.59;4954048;28;20411;-64
2022/11/19 05:54:45;;;;;;;20.08;9.77;;;;;;;-4.47;62.21;100776.34;4955599;28;20047;-63
2022/11/19 05:57:12;;;;;;;22.92;11.57;;;;;;;-4.34;61.70;100788.03;4978525;28;20058;-63
2022/11/19 05:59:38;;;;;;;23.73;11.82;;;;;;;-4.26;61.29;100785.94;4973327;28;20058;-63
2022/11/19 06:02:09;;;;;;;12.57;6.90;;;;;;;-4.23;61.08;100789.38;4966121;28;20138;-64
2022/11/19 06:04:36;;;;;;;18.98;9.27;;;;;;;-4.35;61.47;100790.72;4986007;28;20047;-64
2022/11/19 06:07:03;;;;;;;17.58;9.57;;;;;;;-4.25;61.18;100792.03;4972602;28;20105;-63
2022/11/19 06:09:29;;;;;;;21.48;8.82;;;;;;;-4.36;61.27;100795.09;4972965;28;20050;-63
2022/11/19 06:11:56;;;;;;;15.15;8.45;;;;;;;-4.31;60.98;100792.31;4973855;28;20053;-65
2022/11/19 06:14:24;;;;;;;20.60;9.38;;;;;;;-4.42;61.80;100797.09;4972018;28;20058;-64
2022/11/19 06:16:54;;;;;;;17.15;8.35;;;;;;;-4.59;62.19;100798.66;4962210;28;20047;-64
2022/11/19 06:19:21;;;;;;;19.15;10.00;;;;;;;-4.46;61.94;100796.38;4973598;28;20054;-63
2022/11/19 06:21:49;;;;;;;20.40;9.85;;;;;;;-4.31;61.13;100793.16;4972722;28;20101;-65
2022/11/19 06:24:15;;;;;;;19.92;9.77;;;;;;;-4.36;61.28;100800.34;4972834;28;20039;-63
2022/11/19 06:26:42;;;;;;;16.73;8.52;;;;;;;-4.35;61.06;100801.19;4973166;28;20054;-65
2022/11/19 06:29:11;;;;;;;21.92;8.68;;;;;;;-4.31;60.90;100806.25;4972964;28;20491;-63
2022/11/19 06:31:37;;;;;;;16.65;8.30;;;;;;;-4.58;61.59;100802.13;4972617;28;20509;-64
2022/11/19 06:34:04;;;;;;;14.40;8.27;;;;;;;-4.83;62.11;100797.00;4972804;28;20050;-64
2022/11/19 06:36:31;;;;;;;18.60;8.50;;;;;;;-4.98;62.75;100801.06;4972764;28;20051;-64
2022/11/19 06:39:07;;;;;;;21.48;8.85;;;;;;;-4.88;62.90;100794.56;4969248;28;20043;-64
2022/11/19 06:41:33;;;;;;;17.08;8.27;;;;;;;-4.58;61.65;100794.28;4981073;28;20051;-64
2022/11/19 06:44:00;;;;;;;15.93;8.63;;;;;;;-4.53;61.41;100793.16;4972664;28;20043;-65
2022/11/19 06:46:26;;;;;;;14.82;8.05;;;;;;;-4.50;61.70;100792.19;4972402;28;20046;-66
2022/11/19 06:48:53;;;;;;;16.65;8.15;;;;;;;-4.50;61.28;100784.34;4941105;28;20065;-64
2022/11/19 06:51:19;;;;;;;18.20;8.07;;;;;;;-4.49;61.18;100789.50;4933593;28;20412;-65
2022/11/19 06:53:46;;;;;;;14.38;7.50;;;;;;;-4.53;61.27;100789.69;4933609;28;20043;-65
2022/11/19 06:56:12;;;;;;;19.80;11.68;;;;;;;-4.50;61.34;100789.56;4946389;28;20527;-64
2022/11/19 06:58:39;;;;;;;20.42;9.45;;;;;;;-4.43;60.87;100796.25;4934445;28;20058;-64
2022/11/19 07:01:05;;;;;;;20.75;8.27;;;;;;;-4.49;61.43;100792.13;4934002;28;20448;-64
2022/11/19 07:03:32;;;;;;;21.60;9.80;;;;;;;-4.35;60.92;100799.41;4934113;28;20052;-64
2022/11/19 07:06:01;;;;;;;19.33;8.80;;;;;;;-4.49;61.55;100797.34;4929335;28;20052;-65
2022/11/19 07:08:30;;;;;;;16.67;8.45;;;;;;;-4.41;61.34;100781.34;4933705;28;20054;-64
2022/11/19 07:10:56;;;;;;;15.98;7.90;;;;;;;-4.34;61.05;100793.28;4932598;28;20047;-65
2022/11/19 07:13:23;;;;;;;12.65;7.15;;;;;;;-4.40;61.12;100792.69;4942070;28;20077;-64
2022/11/19 07:15:49;;;;;;;14.82;7.97;;;;;;;-4.35;61.03;100802.03;4933608;28;20448;-66
2022/11/19 07:18:16;;;;;;;20.50;7.80;;;;;;;-4.35;60.97;100807.25;4933022;28;20055;-67
2022/11/19 07:20:44;;;;;;;16.13;7.93;;;;;;;-4.51;63.89;100801.81;4932724;28;20055;-65
2022/11/19 07:23:12;;;;;;;20.50;8.43;;;;;;;-4.46;62.79;100808.63;4933856;28;20453;-65
2022/11/19 07:25:38;;;;;;;16.38;8.15;;;;;;;-4.39;62.57;100805.69;4934101;28;20511;-65
2022/11/19 07:28:05;;;;;;;17.67;7.45;;;;;;;-4.36;61.95;100796.88;4934043;28;20519;-65
2022/11/19 07:30:31;;;;;;;21.65;7.53;;;;;;;-4.60;62.68;100794.31;4932561;28;20051;-67
2022/11/19 07:32:57;;;;;;;20.42;9.13;;;;;;;-4.62;62.99;100790.94;4933342;28;20050;-65
2022/11/19 07:35:24;;;;;;;16.15;7.63;;;;;;;-4.29;62.09;100787.84;4936661;28;20502;-65
2022/11/19 07:37:51;;;;;;;15.75;7.95;;;;;;;-4.55;63.12;100789.78;4937562;28;20181;-65
2022/11/19 07:40:17;;;;;;;15.88;8.50;;;;;;;-4.25;62.09;100784.16;4934389;28;20055;-66
2022/11/19 07:42:49;;;;;;;16.10;8.13;;;;;;;-4.11;61.80;100791.44;4933830;28;20048;-65
2022/11/19 07:45:21;;;;;;;13.10;6.75;;;;;;;-4.03;62.13;100797.25;4934068;28;20466;-65
2022/11/19 07:47:47;;;;;;;;;;;;;;;-3.89;61.22;100797.50;4933176;28;20064;-66
2022/11/19 07:50:15;;;;;;;12.95;7.22;;;;;;;-3.77;60.93;100806.59;4933489;28;20363;-65
2022/11/19 07:52:42;;;;;;;16.13;7.45;;;;;;;-3.64;60.65;100801.69;4933475;28;20048;-64
2022/11/19 07:55:09;;;;;;;13.65;7.30;;;;;;;-3.56;60.19;100800.41;4942020;28;20066;-64
2022/11/19 07:57:36;;;;;;;14.48;7.72;;;;;;;-3.54;60.13;100798.56;4974543;28;20050;-67
2022/11/19 08:00:06;;;;;;;13.45;7.85;;;;;;;-3.82;61.57;100800.72;4974528;28;20407;-65
2022/11/19 08:02:33;;;;;;;16.77;7.85;;;;;;;-3.45;60.22;100791.22;4972662;28;20178;-65
2022/11/19 08:04:59;;;;;;;12.82;6.57;;;;;;;-3.30;60.46;100793.16;4981282;28;20049;-64
2022/11/19 08:07:25;;;;;;;16.83;7.75;;;;;;;-3.12;59.95;100780.97;4976558;28;20402;-66
2022/11/19 08:09:52;;;;;;;14.95;7.28;;;;;;;-2.98;59.25;100782.94;4975456;28;20102;-67
2022/11/19 08:12:19;;;;;;;14.02;7.47;;;;;;;-2.98;59.59;100785.56;4975287;28;20043;-66
2022/11/19 08:14:45;;;;;;;15.10;7.30;;;;;;;-2.98;59.55;100770.66;4974809;28;20050;-66
2022/11/19 08:19:57;;;;;;;15.23;8.23;;;;;;;-2.79;59.97;100764.53;4975817;28;20050;-66
2022/11/19 08:22:23;;;;;;;16.50;8.00;;;;;;;-2.71;60.57;100765.03;4975824;28;20057;-66
2022/11/19 08:24:50;;;;;;;15.27;8.15;;;;;;;-2.57;62.05;100758.19;4975458;28;20414;-66
2022/11/19 08:27:17;;;;;;;14.07;7.25;;;;;;;-2.43;61.15;100747.00;4975289;28;20391;-66
2022/11/19 08:29:43;;;;;;;16.75;7.22;;;;;;;-2.46;60.19;100759.44;4975180;28;20053;-66
2022/11/19 08:32:10;;;;;;;14.13;7.50;;;;;;;-2.39;59.71;100753.78;4975699;28;20054;-67
2022/11/19 08:34:36;;;;;;;16.02;7.75;;;;;;;-2.59;59.95;100759.16;4974833;28;20039;-67
2022/11/19 08:37:03;;;;;;;12.95;7.53;;;;;;;-2.70;60.68;100756.22;4974910;28;20047;-65
2022/11/19 08:39:29;;;;;;;17.48;7.70;;;;;;;-2.59;60.73;100746.03;4974687;28;20054;-67
2022/11/19 08:44:41;;;;;;;16.70;7.88;;;;;;;-2.29;59.38;100748.94;4974576;28;20054;-67
2022/11/19 08:47:07;;;;;;;14.23;7.68;;;;;;;-2.05;59.32;100754.72;4974348;28;20046;-65
2022/11/19 08:49:34;;;;;;;14.32;7.78;;;;;;;-1.73;58.77;100746.94;4974858;28;20054;-65
2022/11/19 08:52:00;;;;;;;13.60;7.30;;;;;;;-1.62;59.03;100752.47;4974870;28;20051;-66
2022/11/19 08:54:27;;;;;;;14.75;8.05;;;;;;;-1.81;59.31;100747.34;4974757;28;20047;-65
2022/11/19 08:56:53;;;;;;;14.60;7.57;;;;;;;-1.45;58.79;100752.44;4956851;28;20051;-65
2022/11/19 08:59:20;;;;;;;13.60;7.25;;;;;;;-1.16;58.01;100750.00;4954968;28;20047;-67
2022/11/19 09:01:48;;;;;;;15.30;8.52;;;;;;;-1.48;58.25;100746.47;4954610;28;20411;-66
2022/11/19 09:04:16;;;;;;;17.13;8.30;;;;;;;-1.41;58.34;100746.06;4955823;28;20070;-66
2022/11/19 09:06:42;;;;;;;16.33;7.30;;;;;;;-1.34;57.61;100748.38;4955065;28;20143;-67
2022/11/19 09:09:09;;;;;;;12.48;7.75;;;;;;;-1.42;58.54;100748.78;4955935;28;20047;-68
2022/11/19 09:11:35;;;;;;;12.88;6.88;;;;;;;-1.16;57.42;100742.97;4953761;28;20053;-66
2022/11/19 09:14:08;;;;;;;21.35;7.72;;;;;;;-1.18;57.34;100741.34;4953080;28;20134;-66
2022/11/19 09:16:34;;;;;;;14.60;6.65;;;;;;;-1.06;57.55;100748.53;4954209;28;20423;-67
2022/11/19 09:19:01;;;;;;;14.48;6.25;;;;;;;-1.18;57.46;100749.25;4954230;28;20055;-67
2022/11/19 09:21:28;;;;;;;12.07;6.43;;;;;;;-1.24;57.42;100747.78;4954975;28;20050;-66
2022/11/19 09:23:54;;;;;;;11.07;6.45;;;;;;;-0.99;56.57;100755.19;4954633;28;20058;-66
2022/11/19 09:26:20;;;;;;;14.45;6.63;;;;;;;-1.14;57.13;100748.97;4954008;28;20070;-67
2022/11/19 09:28:48;;;;;;;10.63;6.20;;;;;;;-1.13;57.13;100752.44;4954611;28;20047;-67
2022/11/19 09:31:17;;;;;;;11.63;6.95;;;;;;;-0.91;56.36;100754.78;4954236;28;20419;-66
2022/11/19 09:33:46;;;;;;;11.10;5.43;;;;;;;-0.95;55.95;100764.63;4954344;28;20043;-65
2022/11/19 09:36:13;;;;;;;13.13;6.55;;;;;;;-0.99;55.64;100763.09;4954284;28;20419;-68
2022/11/19 09:38:40;;;;;;;8.90;4.75;;;;;;;-1.11;55.55;100755.88;4953835;28;20047;-66
2022/11/19 09:41:16;;;;;;;16.00;5.72;;;;;;;-0.90;54.31;100757.31;4953540;28;20043;-65
2022/11/19 09:43:51;;;;;;;11.57;6.05;;;;;;;-1.12;54.97;100767.34;4952597;28;20054;-67
2022/11/19 09:46:32;;;;;;;9.18;5.32;;;;;;;-0.95;54.42;100763.78;4954118;28;20058;-66
2022/11/19 09:49:06;;;;;;;10.70;4.50;;;;;;;-0.82;53.53;100758.66;4953830;28;20047;-68
2022/11/19 09:51:35;;;;;;;16.33;6.80;;;;;;;-0.92;53.43;100764.47;4953707;28;20415;-66
2022/11/19 09:54:04;;;;;;;8.35;4.30;;;;;;;-1.19;53.69;100760.72;4954380;28;20063;-66
2022/11/19 09:56:37;;;;;;;8.23;4.38;;;;;;;-1.42;53.78;100754.91;4968418;28;20051;-66
2022/11/19 09:59:24;;;;;;;13.77;5.15;;;;;;;-1.04;52.50;100748.47;4969398;28;20049;-66
2022/11/19 10:01:51;;;;;;;10.73;4.25;;;;;;;-0.96;51.42;100746.25;4973307;28;20051;-66
2022/11/19 10:04:22;;;;;;;9.43;4.10;;;;;;;-0.73;51.00;100747.63;4969052;28;20057;-68
2022/11/19 10:07:10;;;;;;;8.80;4.43;;;;;;;-0.76;51.18;100738.09;4971640;28;20413;-67
2022/11/19 10:10:23;;;;;;;16.75;5.18;;;;;;;-0.92;51.27;100732.84;4969646;28;20104;-66
2022/11/19 10:12:52;;;;;;;7.13;3.65;;;;;;;-0.76;50.34;100734.59;4939994;28;20066;-66
2022/11/19 10:15:38;;;;;;;13.55;4.80;;;;;;;-0.79;49.67;100740.88;4973402;28;20979;-66
2022/11/19 10:18:30;;;;;;;15.65;4.80;;;;;;;-0.39;49.04;100735.97;4972394;28;20422;-68
2022/11/19 10:21:15;;;;;;;7.43;3.95;;;;;;;-0.60;49.35;100727.53;4972726;28;20050;-66
2022/11/19 10:23:51;;;;;;;6.10;3.53;;;;;;;-0.88;50.70;100728.25;4971461;28;20054;-68
2022/11/19 10:26:25;;;;;;;7.60;3.80;;;;;;;-0.84;50.21;100729.78;4963103;28;20138;-69
2022/11/19 10:28:55;;;;;;;6.55;3.58;;;;;;;-1.12;50.60;100709.41;4972334;28;20047;-68
2022/11/19 10:31:33;;;;;;;8.13;3.83;;;;;;;-0.92;50.36;100705.66;4971999;28;20050;-68
2022/11/19 10:34:06;;;;;;;6.45;3.38;;;;;;;-0.90;50.18;100712.53;4972224;28;20042;-68
2022/11/19 10:36:42;;;;;;;7.05;3.70;;;;;;;-0.59;50.09;100718.69;4964520;28;20046;-71
2022/11/19 10:39:09;;;;;;;8.95;4.25;;;;;;;-0.72;49.76;100709.78;4972332;28;20516;-67
2022/11/19 10:41:57;;;;;;;6.65;3.45;;;;;;;-0.60;49.43;100711.72;4971365;28;20042;-68
2022/11/19 10:44:41;;;;;;;6.18;3.75;;;;;;;-0.44;49.18;100709.88;4971347;28;20053;-69
2022/11/19 10:47:24;;;;;;;8.65;3.53;;;;;;;-0.59;49.50;100705.50;4972568;28;20594;-69
2022/11/19 10:49:54;;;;;;;5.68;3.33;;;;;;;-0.33;48.90;100705.75;4966587;28;20443;-66
2022/11/19 10:52:28;;;;;;;9.25;3.70;;;;;;;-0.26;48.85;100692.16;4971916;28;20070;-66
2022/11/19 10:55:03;;;;;;;7.45;3.33;;;;;;;-0.25;48.14;100690.34;4970280;28;20525;-66
2022/11/19 10:57:31;;;;;;;6.63;3.50;;;;;;;0.03;46.86;100698.31;4953632;28;20047;-67
2022/11/19 10:59:59;;;;;;;6.93;3.15;;;;;;;0.15;46.05;100694.06;4954396;28;20051;-67
2022/11/19 11:02:50;;;;;;;10.57;3.38;;;;;;;0.09;45.50;100677.75;4953575;28;20446;-67
2022/11/19 11:05:17;;;;;;;7.15;3.53;;;;;;;0.16;45.14;100679.09;4953907;28;20109;-66
2022/11/19 11:07:47;;;;;;;7.63;3.58;;;;;;;0.76;44.12;100682.31;4951164;28;20138;-66
2022/11/19 11:10:45;;;;;;;14.13;3.65;;;;;;;1.06;42.77;100676.00;4952698;28;20130;-66
2022/11/19 11:16:06;;;;;;;5.65;3.25;;;;;;;0.80;44.08;100659.19;4953374;28;20081;-67
2022/11/19 11:18:34;;;;;;;6.22;3.60;;;;;;;1.03;43.49;100660.34;4952744;28;20047;-68
2022/11/19 11:21:01;;;;;;;5.60;3.67;;;;;;;1.26;43.00;100656.19;4952910;28;20140;-66
2022/11/19 11:23:29;;;;;;;8.05;3.30;;;;;;;1.33;42.84;100652.19;4951831;28;20051;-69
2022/11/19 11:26:04;;;;;;;5.85;3.28;;;;;;;1.31;43.38;100651.44;4953110;28;20384;-70
2022/11/19 11:28:31;;;;;;;8.23;3.80;;;;;;;1.25;43.69;100646.56;4952475;28;20131;-66
2022/11/19 11:31:08;;;;;;;6.10;3.67;;;;;;;1.79;43.63;100633.22;4952917;28;20109;-68
2022/11/19 11:33:52;;;;;;;9.20;4.35;;;;;;;2.38;42.75;100636.13;4952855;28;20047;-70
2022/11/19 11:36:23;;;;;;;8.32;4.20;;;;;;;2.04;42.99;100637.66;4953843;28;20126;-69
2022/11/19 11:38:53;;;;;;;6.05;3.67;;;;;;;2.36;42.82;100632.75;4955550;28;20047;-69
2022/11/19 11:41:41;;;;;;;8.10;4.18;;;;;;;2.69;41.63;100626.00;4956496;28;20423;-69
2022/11/19 11:44:31;;;;;;;7.35;4.35;;;;;;;2.73;41.88;100619.50;4954887;28;20051;-70
2022/11/19 11:47:09;;;;;;;6.50;3.35;;;;;;;3.25;41.37;100620.09;4956729;28;20051;-69
2022/11/19 11:49:40;;;;;;;6.93;3.72;;;;;;;3.53;41.21;100632.94;4956239;28;20451;-70
2022/11/19 11:52:38;;;;;;;10.73;4.80;;;;;;;4.07;39.81;100626.13;4956698;28;20047;-69
2022/11/19 11:55:12;;;;;;;6.00;4.15;;;;;;;4.95;37.95;100620.84;4955723;28;20046;-70